createdAt,value
2019-04-20T00:00:29.438Z,14.60
2019-04-20T00:02:59.758Z,14.60
2019-04-20T00:05:28.186Z,14.50
2019-04-20T00:07:57.117Z,14.50
2019-04-20T00:10:29.838Z,14.50
2019-04-20T00:13:08.784Z,14.40
2019-04-20T00:15:28.230Z,14.40
2019-04-20T00:18:01.845Z,14.40
2019-04-20T00:20:31.974Z,14.30
2019-04-20T00:23:14.599Z,14.20
2019-04-20T00:26:07.297Z,14.20
2019-04-20T00:28:47.267Z,14.10
2019-04-20T00:31:12.666Z,14.00
2019-04-20T00:33:46.097Z,14.00
2019-04-20T00:36:01.132Z,14.00
2019-04-20T00:38:35.213Z,13.90
2019-04-20T00:41:04.836Z,13.80
2019-04-20T00:43:34.281Z,13.90
2019-04-20T00:46:09.144Z,13.90
2019-04-20T00:48:42.894Z,13.90
2019-04-20T00:51:22.370Z,13.80
2019-04-20T00:53:38.020Z,13.80
2019-04-20T00:56:01.600Z,13.70
2019-04-20T00:58:46.291Z,13.60
2019-04-20T01:01:20.662Z,13.70
2019-04-20T01:03:47.322Z,13.60
2019-04-20T01:06:23.391Z,13.50
2019-04-20T01:08:35.953Z,13.50
2019-04-20T01:11:05.996Z,13.40
2019-04-20T01:13:42.174Z,13.30
2019-04-20T01:16:08.722Z,13.30
2019-04-20T01:18:35.231Z,13.30
2019-04-20T01:21:09.962Z,13.20
2019-04-20T01:23:41.574Z,13.10
2019-04-20T01:26:09.499Z,13.10
2019-04-20T01:28:46.383Z,13.00
2019-04-20T01:31:14.676Z,13.00
2019-04-20T01:33:46.158Z,13.00
2019-04-20T01:36:25.730Z,13.00
2019-04-20T01:38:54.672Z,12.90
2019-04-20T01:41:07.498Z,12.80
2019-04-20T01:43:37.394Z,12.80
2019-04-20T01:46:12.051Z,12.80
2019-04-20T01:48:38.686Z,12.70
2019-04-20T01:51:16.855Z,12.70
2019-04-20T01:53:56.826Z,12.60
2019-04-20T01:56:24.485Z,12.50
2019-04-20T01:58:58.200Z,12.50
2019-04-20T02:01:35.754Z,12.60
2019-04-20T02:04:07.350Z,12.50
2019-04-20T02:06:44.386Z,12.50
2019-04-20T02:09:15.028Z,12.50
2019-04-20T02:11:43.093Z,12.50
2019-04-20T02:14:12.049Z,12.50
2019-04-20T02:16:46.043Z,12.50
2019-04-20T02:19:26.332Z,12.50
2019-04-20T02:21:55.385Z,12.50
2019-04-20T02:24:13.124Z,12.50
2019-04-20T02:26:42.945Z,12.40
2019-04-20T02:29:36.169Z,12.40
2019-04-20T02:32:31.750Z,12.30
2019-04-20T02:35:01.486Z,12.20
2019-04-20T02:37:49.374Z,12.20
2019-04-20T02:40:12.874Z,12.20
2019-04-20T02:42:44.737Z,12.20
2019-04-20T02:50:15.376Z,12.20
2019-04-20T02:52:49.295Z,12.20
2019-04-20T02:57:47.269Z,12.10
2019-04-20T03:00:12.706Z,12.10
2019-04-20T03:02:27.153Z,12.10
2019-04-20T03:04:47.994Z,12.00
2019-04-20T03:07:23.235Z,12.00
2019-04-20T03:10:01.165Z,11.90
2019-04-20T03:12:52.185Z,11.80
2019-04-20T03:14:55.060Z,11.80
2019-04-20T03:17:32.813Z,11.70
2019-04-20T03:19:57.258Z,11.70
2019-04-20T03:23:01.031Z,11.70
2019-04-20T03:25:06.324Z,11.60
2019-04-20T03:27:39.348Z,11.60
2019-04-20T03:31:09.856Z,11.60
2019-04-20T03:35:51.748Z,11.50
2019-04-20T03:38:00.044Z,11.40
2019-04-20T03:40:24.476Z,11.50
2019-04-20T03:42:39.908Z,11.40
2019-04-20T03:45:13.157Z,11.40
2019-04-20T03:47:52.822Z,11.40
2019-04-20T03:50:31.908Z,11.40
2019-04-20T03:53:03.921Z,11.30
2019-04-20T03:55:39.449Z,11.30
2019-04-20T03:58:29.425Z,11.20
2019-04-20T04:01:14.801Z,11.20
2019-04-20T04:03:53.317Z,11.20
2019-04-20T04:06:12.420Z,11.20
2019-04-20T04:08:36.383Z,11.20
2019-04-20T04:11:18.882Z,11.10
2019-04-20T04:13:31.473Z,11.10
2019-04-20T04:16:06.122Z,11.10
2019-04-20T04:18:37.215Z,11.10
2019-04-20T04:21:08.011Z,11.00
2019-04-20T04:23:48.982Z,11.10
2019-04-20T04:26:17.190Z,11.10
2019-04-20T04:28:47.456Z,11.10
2019-04-20T04:31:21.053Z,11.10
2019-04-20T04:34:00.808Z,11.10
2019-04-20T04:36:17.831Z,11.10
2019-04-20T04:38:56.091Z,11.10
2019-04-20T04:41:24.223Z,11.10
2019-04-20T04:43:49.507Z,11.10
2019-04-20T04:46:03.986Z,11.10
2019-04-20T04:48:37.241Z,11.20
2019-04-20T04:51:10.389Z,11.30
2019-04-20T04:53:44.298Z,11.40
2019-04-20T04:56:14.914Z,11.40
2019-04-20T04:58:40.492Z,11.40
2019-04-20T05:01:14.568Z,11.50
2019-04-20T05:04:02.827Z,11.50
2019-04-20T05:06:26.500Z,11.60
2019-04-20T05:08:47.368Z,11.60
2019-04-20T05:11:13.039Z,11.70
2019-04-20T05:13:50.043Z,11.60
2019-04-20T05:16:33.775Z,11.70
2019-04-20T05:19:03.088Z,11.70
2019-04-20T05:21:38.910Z,11.80
2019-04-20T05:24:25.529Z,11.80
2019-04-20T05:27:09.228Z,11.70
2019-04-20T05:29:21.470Z,11.70
2019-04-20T05:31:51.828Z,11.70
2019-04-20T05:34:38.298Z,11.70
2019-04-20T05:37:17.752Z,11.90
2019-04-20T05:39:41.206Z,11.90
2019-04-20T05:42:03.281Z,12.00
2019-04-20T05:44:41.712Z,12.10
2019-04-20T05:47:11.340Z,12.20
2019-04-20T05:49:34.562Z,12.30
2019-04-20T05:52:24.367Z,12.30
2019-04-20T05:54:40.368Z,12.40
2019-04-20T05:57:15.008Z,12.50
2019-04-20T05:59:47.342Z,12.70
2019-04-20T06:02:09.760Z,12.80
2019-04-20T06:04:56.828Z,12.80
2019-04-20T06:07:14.958Z,12.90
2019-04-20T06:09:44.866Z,13.00
2019-04-20T06:14:43.250Z,13.10
2019-04-20T06:17:21.121Z,13.10
2019-04-20T06:19:44.209Z,13.10
2019-04-20T06:22:33.735Z,13.10
2019-04-20T06:25:19.218Z,13.20
2019-04-20T06:27:38.145Z,13.30
2019-04-20T06:30:00.782Z,13.30
2019-04-20T06:33:12.856Z,13.40
2019-04-20T06:36:00.963Z,13.50
2019-04-20T06:38:27.975Z,13.60
2019-04-20T06:40:57.958Z,13.70
2019-04-20T06:43:14.662Z,13.80
2019-04-20T06:45:52.855Z,13.90
2019-04-20T06:48:21.729Z,13.90
2019-04-20T06:50:41.500Z,14.00
2019-04-20T06:53:28.566Z,14.10
2019-04-20T06:55:58.699Z,14.20
2019-04-20T06:58:39.035Z,14.30
2019-04-20T07:00:58.883Z,14.50
2019-04-20T07:03:42.179Z,14.70
2019-04-20T07:06:06.550Z,14.80
2019-04-20T07:08:42.351Z,15.00
2019-04-20T07:11:08.824Z,15.20
2019-04-20T07:13:25.404Z,15.30
2019-04-20T07:16:08.317Z,15.40
2019-04-20T07:18:43.734Z,15.60
2019-04-20T07:21:12.797Z,15.70
2019-04-20T07:24:09.366Z,15.80
2019-04-20T07:26:37.455Z,15.90
2019-04-20T07:29:10.118Z,16.10
2019-04-20T07:31:29.320Z,16.20
2019-04-20T07:34:04.675Z,16.30
2019-04-20T07:36:40.525Z,16.50
2019-04-20T07:39:07.592Z,16.70
2019-04-20T07:41:41.955Z,16.80
2019-04-20T07:44:10.422Z,17.00
2019-04-20T07:46:46.879Z,17.00
2019-04-20T07:49:10.312Z,17.10
2019-04-20T07:51:21.314Z,17.20
2019-04-20T07:54:10.566Z,17.30
2019-04-20T07:56:37.040Z,17.30
2019-04-20T07:58:52.396Z,17.40
2019-04-20T08:02:00.817Z,17.60
2019-04-20T08:04:42.250Z,17.70
2019-04-20T08:06:59.187Z,17.80
2019-04-20T08:09:32.725Z,17.80
2019-04-20T08:12:31.324Z,17.80
2019-04-20T08:15:03.755Z,17.90
2019-04-20T08:17:48.368Z,18.10
2019-04-20T08:19:59.653Z,18.30
2019-04-20T08:22:39.198Z,18.40
2019-04-20T08:24:55.225Z,18.40
2019-04-20T08:27:13.180Z,18.40
2019-04-20T08:30:03.634Z,18.40
2019-04-20T08:32:38.727Z,18.50
2019-04-20T08:35:13.914Z,18.60
2019-04-20T08:37:59.459Z,18.70
2019-04-20T08:40:13.253Z,18.80
2019-04-20T08:42:57.203Z,19.00
2019-04-20T08:45:16.762Z,19.00
2019-04-20T08:47:49.991Z,19.00
2019-04-20T08:50:21.255Z,19.20
2019-04-20T08:55:14.911Z,19.50
2019-04-20T08:57:29.334Z,19.40
2019-04-20T09:00:00.913Z,19.60
2019-04-20T09:02:28.452Z,19.60
2019-04-20T09:05:04.423Z,19.70
2019-04-20T09:07:30.581Z,19.90
2019-04-20T09:10:25.614Z,19.90
2019-04-20T09:12:47.762Z,20.00
2019-04-20T09:14:59.372Z,20.00
2019-04-20T09:17:36.522Z,20.10
2019-04-20T09:20:07.172Z,20.10
2019-04-20T09:22:49.397Z,20.30
2019-04-20T09:27:47.648Z,20.50
2019-04-20T09:30:25.857Z,20.70
2019-04-20T09:33:20.858Z,20.70
2019-04-20T09:35:39.117Z,20.70
2019-04-20T09:38:14.467Z,20.80
2019-04-20T09:40:46.111Z,20.90
2019-04-20T09:43:02.798Z,21.10
2019-04-20T09:45:39.106Z,21.30
2019-04-20T09:48:06.920Z,21.50
2019-04-20T09:50:55.566Z,21.50
2019-04-20T09:53:21.151Z,21.60
2019-04-20T09:55:52.904Z,21.60
2019-04-20T09:58:15.480Z,21.70
2019-04-20T10:01:00.805Z,21.70
2019-04-20T10:03:12.972Z,21.60
2019-04-20T10:05:41.779Z,21.50
2019-04-20T10:08:11.773Z,21.50
2019-04-20T10:10:43.809Z,21.70
2019-04-20T10:13:11.244Z,21.80
2019-04-20T10:15:40.107Z,21.90
2019-04-20T10:18:09.947Z,21.90
2019-04-20T10:20:41.431Z,21.90
2019-04-20T10:23:08.869Z,22.00
2019-04-20T10:25:38.415Z,22.00
2019-04-20T10:28:07.610Z,22.10
2019-04-20T10:30:36.712Z,22.20
2019-04-20T10:33:05.795Z,22.30
2019-04-20T10:35:35.885Z,22.50
2019-04-20T10:38:07.490Z,22.60
2019-04-20T10:40:48.690Z,22.80
2019-04-20T10:43:06.392Z,22.90
2019-04-20T10:45:35.069Z,23.00
2019-04-20T10:48:03.615Z,22.90
2019-04-20T10:50:32.448Z,22.90
2019-04-20T10:53:02.072Z,22.90
2019-04-20T10:55:31.437Z,23.00
2019-04-20T10:58:00.193Z,22.90
2019-04-20T11:00:41.781Z,22.70
2019-04-20T11:03:11.817Z,22.70
2019-04-20T11:05:42.592Z,22.80
2019-04-20T11:08:11.107Z,22.90
2019-04-20T11:10:56.002Z,22.90
2019-04-20T11:13:13.394Z,23.00
2019-04-20T11:15:42.224Z,23.20
2019-04-20T11:18:11.321Z,23.20
2019-04-20T11:20:41.377Z,23.20
2019-04-20T11:23:12.260Z,23.30
2019-04-20T11:25:40.117Z,23.20
2019-04-20T11:28:10.109Z,23.40
2019-04-20T11:30:38.776Z,23.40
2019-04-20T11:33:09.952Z,23.40
2019-04-20T11:35:41.643Z,23.60
2019-04-20T11:38:13.352Z,23.60
2019-04-20T11:40:39.327Z,23.80
2019-04-20T11:43:07.982Z,23.80
2019-04-20T11:45:36.495Z,23.90
2019-04-20T11:48:05.397Z,24.10
2019-04-20T11:50:35.591Z,24.20
2019-04-20T11:53:05.345Z,24.30
2019-04-20T11:55:34.287Z,24.30
2019-04-20T11:58:03.767Z,24.20
2019-04-20T12:00:46.985Z,24.20
2019-04-20T12:03:29.860Z,24.30
2019-04-20T12:05:56.999Z,24.30
2019-04-20T12:08:24.878Z,24.30
2019-04-20T12:10:57.654Z,24.30
2019-04-20T12:13:24.850Z,24.40
2019-04-20T12:15:53.959Z,24.50
2019-04-20T12:18:23.404Z,24.60
2019-04-20T12:20:52.602Z,24.50
2019-04-20T12:23:22.330Z,24.70
2019-04-20T12:25:52.242Z,24.70
2019-04-20T12:28:21.935Z,24.60
2019-04-20T12:30:51.500Z,24.50
2019-04-20T12:33:20.331Z,24.50
2019-04-20T12:35:50.103Z,24.60
2019-04-20T12:38:19.174Z,24.60
2019-04-20T12:40:48.354Z,24.70
2019-04-20T12:43:19.130Z,24.80
2019-04-20T12:45:47.691Z,24.90
2019-04-20T12:48:17.517Z,24.90
2019-04-20T12:50:47.777Z,24.90
2019-04-20T12:53:17.030Z,25.00
2019-04-20T12:55:46.560Z,25.10
2019-04-20T12:58:16.622Z,25.10
2019-04-20T13:00:52.692Z,25.10
2019-04-20T13:03:23.598Z,25.10
2019-04-20T13:05:52.323Z,25.10
2019-04-20T13:08:28.618Z,25.10
2019-04-20T13:10:55.595Z,25.00
2019-04-20T13:13:38.703Z,25.10
2019-04-20T13:16:12.248Z,25.20
2019-04-20T13:18:43.383Z,25.20
2019-04-20T13:21:13.285Z,25.20
2019-04-20T13:23:42.750Z,25.30
2019-04-20T13:26:12.681Z,25.30
2019-04-20T13:28:41.631Z,25.20
2019-04-20T13:31:11.642Z,25.40
2019-04-20T13:33:41.249Z,25.40
2019-04-20T13:36:10.273Z,25.50
2019-04-20T13:38:40.305Z,25.40
2019-04-20T13:41:09.475Z,25.30
2019-04-20T13:43:38.124Z,25.30
2019-04-20T13:46:07.152Z,25.20
2019-04-20T13:48:36.842Z,25.40
2019-04-20T13:51:05.875Z,25.30
2019-04-20T13:53:35.032Z,25.30
2019-04-20T13:56:03.771Z,25.30
2019-04-20T13:58:43.596Z,25.50
2019-04-20T14:01:32.708Z,25.60
2019-04-20T14:04:03.095Z,25.80
2019-04-20T14:06:32.859Z,25.60
2019-04-20T14:09:01.810Z,25.50
2019-04-20T14:11:31.483Z,25.50
2019-04-20T14:14:03.174Z,25.60
2019-04-20T14:16:31.468Z,25.70
2019-04-20T14:19:00.883Z,25.80
2019-04-20T14:21:30.196Z,25.80
2019-04-20T14:23:59.164Z,25.70
2019-04-20T14:26:27.760Z,25.70
2019-04-20T14:28:56.773Z,25.60
2019-04-20T14:31:25.854Z,25.60
2019-04-20T14:33:55.018Z,25.60
2019-04-20T14:36:24.347Z,25.60
2019-04-20T14:38:54.207Z,25.60
2019-04-20T14:41:24.229Z,25.50
2019-04-20T14:43:53.250Z,25.50
2019-04-20T14:46:23.014Z,25.60
2019-04-20T14:48:52.437Z,25.60
2019-04-20T14:51:21.552Z,25.60
2019-04-20T14:53:51.273Z,25.50
2019-04-20T14:56:21.237Z,25.50
2019-04-20T14:59:01.852Z,25.40
2019-04-20T15:01:38.610Z,25.40
2019-04-20T15:04:14.554Z,25.50
2019-04-20T15:06:39.733Z,25.50
2019-04-20T15:09:08.720Z,25.60
2019-04-20T15:11:41.622Z,25.50
2019-04-20T15:14:09.357Z,25.40
2019-04-20T15:16:38.480Z,25.40
2019-04-20T15:19:09.646Z,25.40
2019-04-20T15:21:40.220Z,25.40
2019-04-20T15:24:09.373Z,25.40
2019-04-20T15:26:38.469Z,25.40
2019-04-20T15:29:08.399Z,25.40
2019-04-20T15:31:38.592Z,25.30
2019-04-20T15:34:07.125Z,25.30
2019-04-20T15:36:36.121Z,25.40
2019-04-20T15:39:07.346Z,25.30
2019-04-20T15:41:36.231Z,25.30
2019-04-20T15:44:05.106Z,25.30
2019-04-20T15:46:35.296Z,25.30
2019-04-20T15:49:04.118Z,25.20
2019-04-20T15:51:34.154Z,25.30
2019-04-20T15:54:03.008Z,25.30
2019-04-20T15:56:31.539Z,25.30
2019-04-20T15:59:00.014Z,25.20
2019-04-20T16:01:30.374Z,25.20
2019-04-20T16:04:01.463Z,25.20
2019-04-20T16:06:32.830Z,25.20
2019-04-20T16:09:06.152Z,25.20
2019-04-20T16:11:35.157Z,25.20
2019-04-20T16:14:05.264Z,25.20
2019-04-20T16:16:34.049Z,25.20
2019-04-20T16:19:10.277Z,25.20
2019-04-20T16:21:36.729Z,25.10
2019-04-20T16:24:06.833Z,25.10
2019-04-20T16:26:40.154Z,25.10
2019-04-20T16:29:08.761Z,25.10
2019-04-20T16:31:38.416Z,25.10
2019-04-20T16:34:07.647Z,25.00
2019-04-20T16:36:36.708Z,25.00
2019-04-20T16:39:09.224Z,25.00
2019-04-20T16:41:38.199Z,25.00
2019-04-20T16:44:07.278Z,25.00
2019-04-20T16:46:36.294Z,24.90
2019-04-20T16:49:05.385Z,24.80
2019-04-20T16:51:34.750Z,24.80
2019-04-20T16:54:03.889Z,24.70
2019-04-20T16:56:32.988Z,24.70
2019-04-20T16:59:07.063Z,24.70
2019-04-20T17:01:31.886Z,24.70
2019-04-20T17:04:07.334Z,24.70
2019-04-20T17:06:32.004Z,24.70
2019-04-20T17:09:01.168Z,24.70
2019-04-20T17:11:30.035Z,24.60
2019-04-20T17:14:01.359Z,24.60
2019-04-20T17:16:28.837Z,24.50
2019-04-20T17:18:57.445Z,24.50
2019-04-20T17:21:28.975Z,24.60
2019-04-20T17:23:57.558Z,24.40
2019-04-20T17:26:29.448Z,24.30
2019-04-20T17:29:06.030Z,24.30
2019-04-20T17:31:43.050Z,24.30
2019-04-20T17:34:31.397Z,24.30
2019-04-20T17:36:42.273Z,24.40
2019-04-20T17:39:15.476Z,24.30
2019-04-20T17:42:00.754Z,24.30
2019-04-20T17:44:29.001Z,24.20
2019-04-20T17:46:54.320Z,24.20
2019-04-20T17:49:28.395Z,24.20
2019-04-20T17:52:07.650Z,24.10
2019-04-20T17:54:31.738Z,24.00
2019-04-20T17:57:00.412Z,23.90
2019-04-20T17:59:30.287Z,23.80
2019-04-20T18:02:32.616Z,23.70
2019-04-20T18:05:12.605Z,23.60
2019-04-20T18:07:44.003Z,23.50
2019-04-20T18:10:16.362Z,23.40
2019-04-20T18:12:28.154Z,23.30
2019-04-20T18:15:08.187Z,23.20
2019-04-20T18:17:56.514Z,23.10
2019-04-20T18:20:27.987Z,23.00
2019-04-20T18:22:58.329Z,22.90
2019-04-20T18:25:57.453Z,22.70
2019-04-20T18:28:11.134Z,22.60
2019-04-20T18:30:44.805Z,22.60
2019-04-20T18:33:05.815Z,22.40
2019-04-20T18:35:40.396Z,22.40
2019-04-20T18:38:09.138Z,22.30
2019-04-20T18:40:44.502Z,22.20
2019-04-20T18:43:10.859Z,22.20
2019-04-20T18:45:58.547Z,22.10
2019-04-20T18:48:24.979Z,22.00
2019-04-20T18:50:40.806Z,21.90
2019-04-20T18:53:14.739Z,21.90
2019-04-20T18:55:46.302Z,21.80
2019-04-20T18:58:07.417Z,21.70
2019-04-20T19:00:42.197Z,21.60
2019-04-20T19:03:12.022Z,21.50
2019-04-20T19:05:37.981Z,21.50
2019-04-20T19:08:11.858Z,21.50
2019-04-20T19:10:40.387Z,21.40
2019-04-20T19:13:19.351Z,21.30
2019-04-20T19:16:00.163Z,21.20
2019-04-20T19:18:42.771Z,21.10
2019-04-20T19:20:57.120Z,21.10
2019-04-20T19:23:27.026Z,21.00
2019-04-20T19:26:18.294Z,21.00
2019-04-20T19:28:49.762Z,20.90
2019-04-20T19:31:29.003Z,20.80
2019-04-20T19:34:07.751Z,20.80
2019-04-20T19:36:26.304Z,20.70
2019-04-20T19:39:01.378Z,20.60
2019-04-20T19:41:30.254Z,20.50
2019-04-20T19:43:59.228Z,20.50
2019-04-20T19:46:45.277Z,20.40
2019-04-20T19:48:56.054Z,20.30
2019-04-20T19:51:43.480Z,20.10
2019-04-20T19:54:06.643Z,20.00
2019-04-20T19:56:38.542Z,20.00
2019-04-20T19:59:02.601Z,20.00
2019-04-20T20:01:19.855Z,19.80
2019-04-20T20:03:56.569Z,19.80
2019-04-20T20:06:30.726Z,19.60
2019-04-20T20:08:55.794Z,19.50
2019-04-20T20:11:29.445Z,19.40
2019-04-20T20:13:53.302Z,19.40
2019-04-20T20:16:30.297Z,19.20
2019-04-20T20:19:01.687Z,19.20
2019-04-20T20:21:34.774Z,19.10
2019-04-20T20:23:52.009Z,19.00
2019-04-20T20:26:30.467Z,18.90
2019-04-20T20:29:03.607Z,18.80
2019-04-20T20:31:31.005Z,18.70
2019-04-20T20:34:06.056Z,18.60
2019-04-20T20:36:30.773Z,18.40
2019-04-20T20:38:57.699Z,18.30
2019-04-20T20:41:29.608Z,18.10
2019-04-20T20:44:02.676Z,18.10
2019-04-20T20:46:32.507Z,18.00
2019-04-20T20:49:12.056Z,17.90
2019-04-20T20:51:49.851Z,17.80
2019-04-20T20:54:03.322Z,17.80
2019-04-20T20:56:29.163Z,17.70
2019-04-20T20:59:04.010Z,17.70
2019-04-20T21:01:26.437Z,17.70
2019-04-20T21:03:56.565Z,17.60
2019-04-20T21:06:26.586Z,17.60
2019-04-20T21:08:56.651Z,17.50
2019-04-20T21:11:30.525Z,17.40
2019-04-20T21:13:57.443Z,17.40
2019-04-20T21:16:31.428Z,17.40
2019-04-20T21:19:20.148Z,17.20
2019-04-20T21:21:44.318Z,17.10
2019-04-20T21:24:09.018Z,17.00
2019-04-20T21:26:38.778Z,16.80
2019-04-20T21:29:05.863Z,16.50
2019-04-20T21:31:34.595Z,16.40
2019-04-20T21:34:08.264Z,16.40
2019-04-20T21:36:34.820Z,16.50
2019-04-20T21:39:08.699Z,16.60
2019-04-20T21:41:40.642Z,16.60
2019-04-20T21:44:13.035Z,16.60
2019-04-20T21:46:43.790Z,16.70
2019-04-20T21:49:23.797Z,16.70
2019-04-20T21:51:46.651Z,16.60
2019-04-20T21:54:08.001Z,16.50
2019-04-20T21:56:39.261Z,16.40
2019-04-20T21:59:17.695Z,16.30
2019-04-20T22:01:41.170Z,16.30
2019-04-20T22:04:08.370Z,16.30
2019-04-20T22:06:38.234Z,16.20
2019-04-20T22:09:10.725Z,16.10
2019-04-20T22:11:40.066Z,16.00
2019-04-20T22:16:44.315Z,15.90
2019-04-20T22:19:25.036Z,15.90
2019-04-20T22:21:54.346Z,15.90
2019-04-20T22:24:28.444Z,15.80
2019-04-20T22:26:53.602Z,15.80
2019-04-20T22:29:10.366Z,15.80
2019-04-20T22:31:40.179Z,15.70
2019-04-20T22:34:16.307Z,15.50
2019-04-20T22:36:44.828Z,15.40
2019-04-20T22:39:12.197Z,15.30
2019-04-20T22:41:45.815Z,15.20
2019-04-20T22:44:19.359Z,15.10
2019-04-20T22:47:07.563Z,15.10
2019-04-20T22:49:50.278Z,15.00
2019-04-20T22:52:18.106Z,15.00
2019-04-20T22:54:50.559Z,15.00
2019-04-20T22:57:12.858Z,15.00
2019-04-20T22:59:43.267Z,14.90
2019-04-20T23:02:06.158Z,14.90
2019-04-20T23:04:35.012Z,14.80
2019-04-20T23:07:04.940Z,14.80
2019-04-20T23:09:43.907Z,14.80
2019-04-20T23:12:11.306Z,14.70
2019-04-20T23:14:34.570Z,14.70
2019-04-20T23:17:04.291Z,14.70
2019-04-20T23:19:41.627Z,14.70
2019-04-20T23:22:07.063Z,14.70
2019-04-20T23:24:35.202Z,14.70
2019-04-20T23:27:11.826Z,14.60
2019-04-20T23:29:37.917Z,14.50
2019-04-20T23:32:08.310Z,14.60
2019-04-20T23:34:37.505Z,14.60
2019-04-20T23:37:09.917Z,14.40
2019-04-20T23:39:40.936Z,14.40
2019-04-20T23:42:09.536Z,14.40
2019-04-20T23:44:45.033Z,14.40
2019-04-20T23:47:17.158Z,14.40
2019-04-20T23:50:06.005Z,14.30
2019-04-20T23:52:35.609Z,14.20
2019-04-20T23:54:54.270Z,14.10
2019-04-20T23:57:19.734Z,14.10
2019-04-20T23:59:48.663Z,14.10
